sensor_id;sensor_type;location;lat;lon;timestamp;P1;durP1;ratioP1;P2;durP2;ratioP2
3815;SDS011;1923;48.154;11.536;2024-01-07T00:02:24;21.83;;;12.13;;
3815;SDS011;1923;48.154;11.536;2024-01-07T00:04:52;21.00;;;11.80;;
3815;SDS011;1923;48.154;11.536;2024-01-07T00:07:21;22.70;;;11.83;;
3815;SDS011;1923;48.154;11.536;2024-01-07T00:09:49;20.63;;;11.17;;
3815;SDS011;1923;48.154;11.536;2024-01-07T00:12:17;22.43;;;11.97;;
3815;SDS011;1923;48.154;11.536;2024-01-07T00:14:46;23.40;;;12.40;;
3815;SDS011;1923;48.154;11.536;2024-01-07T00:17:14;23.77;;;12.53;;
3815;SDS011;1923;48.154;11.536;2024-01-07T00:19:42;26.27;;;13.53;;
3815;SDS011;1923;48.154;11.536;2024-01-07T00:22:10;22.83;;;11.67;;
3815;SDS011;1923;48.154;11.536;2024-01-07T00:24:39;23.33;;;12.77;;
3815;SDS011;1923;48.154;11.536;2024-01-07T00:27:08;26.37;;;12.03;;
3815;SDS011;1923;48.154;11.536;2024-01-07T00:29:36;21.50;;;12.63;;
3815;SDS011;1923;48.154;11.536;2024-01-07T00:32:04;26.63;;;13.80;;
3815;SDS011;1923;48.154;11.536;2024-01-07T00:34:32;24.42;;;12.95;;
3815;SDS011;1923;48.154;11.536;2024-01-07T00:37:00;24.90;;;12.57;;
3815;SDS011;1923;48.154;11.536;2024-01-07T00:39:28;22.33;;;11.73;;
3815;SDS011;1923;48.154;11.536;2024-01-07T00:41:58;26.57;;;13.17;;
3815;SDS011;1923;48.154;11.536;2024-01-07T00:44:26;24.30;;;12.30;;
3815;SDS011;1923;48.154;11.536;2024-01-07T00:46:54;22.47;;;12.37;;
3815;SDS011;1923;48.154;11.536;2024-01-07T00:49:22;21.60;;;11.90;;
3815;SDS011;1923;48.154;11.536;2024-01-07T00:51:50;21.00;;;11.77;;
3815;SDS011;1923;48.154;11.536;2024-01-07T00:54:19;23.57;;;12.33;;
3815;SDS011;1923;48.154;11.536;2024-01-07T00:56:47;26.13;;;13.20;;
3815;SDS011;1923;48.154;11.536;2024-01-07T00:59:16;22.30;;;11.30;;
3815;SDS011;1923;48.154;11.536;2024-01-07T01:01:44;19.87;;;11.17;;
3815;SDS011;1923;48.154;11.536;2024-01-07T01:04:12;21.80;;;11.90;;
3815;SDS011;1923;48.154;11.536;2024-01-07T01:06:40;20.37;;;11.87;;
3815;SDS011;1923;48.154;11.536;2024-01-07T01:09:09;20.03;;;12.03;;
3815;SDS011;1923;48.154;11.536;2024-01-07T01:11:37;23.70;;;12.60;;
3815;SDS011;1923;48.154;11.536;2024-01-07T01:14:05;21.67;;;12.40;;
3815;SDS011;1923;48.154;11.536;2024-01-07T01:16:34;21.83;;;11.87;;
3815;SDS011;1923;48.154;11.536;2024-01-07T01:19:02;23.57;;;11.80;;
3815;SDS011;1923;48.154;11.536;2024-01-07T01:21:31;23.83;;;12.23;;
3815;SDS011;1923;48.154;11.536;2024-01-07T01:23:59;21.00;;;10.80;;
3815;SDS011;1923;48.154;11.536;2024-01-07T01:26:27;19.10;;;11.40;;
3815;SDS011;1923;48.154;11.536;2024-01-07T01:28:55;23.17;;;12.20;;
3815;SDS011;1923;48.154;11.536;2024-01-07T01:31:23;24.43;;;12.47;;
3815;SDS011;1923;48.154;11.536;2024-01-07T01:33:53;20.27;;;11.27;;
3815;SDS011;1923;48.154;11.536;2024-01-07T01:36:22;20.20;;;11.10;;
3815;SDS011;1923;48.154;11.536;2024-01-07T01:38:50;21.30;;;11.80;;
3815;SDS011;1923;48.154;11.536;2024-01-07T01:41:18;22.57;;;12.10;;
3815;SDS011;1923;48.154;11.536;2024-01-07T01:43:46;20.67;;;11.80;;
3815;SDS011;1923;48.154;11.536;2024-01-07T01:46:14;19.10;;;11.40;;
3815;SDS011;1923;48.154;11.536;2024-01-07T01:48:42;21.40;;;11.00;;
3815;SDS011;1923;48.154;11.536;2024-01-07T01:51:12;19.70;;;10.87;;
3815;SDS011;1923;48.154;11.536;2024-01-07T01:53:40;17.33;;;10.33;;
3815;SDS011;1923;48.154;11.536;2024-01-07T01:56:08;17.37;;;10.17;;
3815;SDS011;1923;48.154;11.536;2024-01-07T01:58:36;22.27;;;12.10;;
3815;SDS011;1923;48.154;11.536;2024-01-07T02:01:05;18.60;;;10.60;;
3815;SDS011;1923;48.154;11.536;2024-01-07T02:03:33;20.70;;;9.80;;
3815;SDS011;1923;48.154;11.536;2024-01-07T02:06:01;18.73;;;10.60;;
3815;SDS011;1923;48.154;11.536;2024-01-07T02:08:31;19.40;;;10.73;;
3815;SDS011;1923;48.154;11.536;2024-01-07T02:11:13;17.20;;;10.00;;
3815;SDS011;1923;48.154;11.536;2024-01-07T02:13:42;19.27;;;9.77;;
3815;SDS011;1923;48.154;11.536;2024-01-07T02:16:10;17.92;;;10.63;;
3815;SDS011;1923;48.154;11.536;2024-01-07T02:18:40;18.40;;;9.73;;
3815;SDS011;1923;48.154;11.536;2024-01-07T02:21:09;19.47;;;11.07;;
3815;SDS011;1923;48.154;11.536;2024-01-07T02:23:39;15.80;;;10.13;;
3815;SDS011;1923;48.154;11.536;2024-01-07T02:26:09;19.13;;;11.13;;
3815;SDS011;1923;48.154;11.536;2024-01-07T02:28:37;17.03;;;9.97;;
3815;SDS011;1923;48.154;11.536;2024-01-07T02:31:05;15.47;;;9.90;;
3815;SDS011;1923;48.154;11.536;2024-01-07T02:33:34;16.50;;;9.53;;
3815;SDS011;1923;48.154;11.536;2024-01-07T02:36:02;19.80;;;10.13;;
3815;SDS011;1923;48.154;11.536;2024-01-07T02:38:31;21.30;;;10.83;;
3815;SDS011;1923;48.154;11.536;2024-01-07T02:40:58;16.27;;;9.02;;
3815;SDS011;1923;48.154;11.536;2024-01-07T02:43:28;16.37;;;9.17;;
3815;SDS011;1923;48.154;11.536;2024-01-07T02:45:56;16.33;;;10.20;;
3815;SDS011;1923;48.154;11.536;2024-01-07T02:48:24;19.60;;;10.60;;
3815;SDS011;1923;48.154;11.536;2024-01-07T02:50:52;17.67;;;10.97;;
3815;SDS011;1923;48.154;11.536;2024-01-07T02:53:20;18.77;;;10.10;;
3815;SDS011;1923;48.154;11.536;2024-01-07T02:55:48;18.63;;;9.97;;
3815;SDS011;1923;48.154;11.536;2024-01-07T02:58:17;18.97;;;10.70;;
3815;SDS011;1923;48.154;11.536;2024-01-07T03:00:46;16.63;;;10.07;;
3815;SDS011;1923;48.154;11.536;2024-01-07T03:03:14;18.00;;;10.10;;
3815;SDS011;1923;48.154;11.536;2024-01-07T03:05:42;19.53;;;9.60;;
3815;SDS011;1923;48.154;11.536;2024-01-07T03:08:10;19.30;;;10.77;;
3815;SDS011;1923;48.154;11.536;2024-01-07T03:10:38;16.70;;;9.80;;
3815;SDS011;1923;48.154;11.536;2024-01-07T03:13:06;15.33;;;8.93;;
3815;SDS011;1923;48.154;11.536;2024-01-07T03:15:34;14.93;;;8.97;;
3815;SDS011;1923;48.154;11.536;2024-01-07T03:18:04;14.73;;;9.00;;
3815;SDS011;1923;48.154;11.536;2024-01-07T03:20:32;16.67;;;9.57;;
3815;SDS011;1923;48.154;11.536;2024-01-07T03:23:00;19.13;;;10.30;;
3815;SDS011;1923;48.154;11.536;2024-01-07T03:25:28;15.30;;;9.67;;
3815;SDS011;1923;48.154;11.536;2024-01-07T03:27:56;19.00;;;10.60;;
3815;SDS011;1923;48.154;11.536;2024-01-07T03:30:24;16.70;;;10.13;;
3815;SDS011;1923;48.154;11.536;2024-01-07T03:32:52;16.63;;;9.63;;
3815;SDS011;1923;48.154;11.536;2024-01-07T03:35:22;17.67;;;10.30;;
3815;SDS011;1923;48.154;11.536;2024-01-07T03:37:50;17.60;;;9.90;;
3815;SDS011;1923;48.154;11.536;2024-01-07T03:40:19;17.87;;;10.17;;
3815;SDS011;1923;48.154;11.536;2024-01-07T03:42:47;17.67;;;10.20;;
3815;SDS011;1923;48.154;11.536;2024-01-07T03:45:15;15.00;;;9.20;;
3815;SDS011;1923;48.154;11.536;2024-01-07T03:47:43;19.57;;;10.60;;
3815;SDS011;1923;48.154;11.536;2024-01-07T03:50:11;16.60;;;10.50;;
3815;SDS011;1923;48.154;11.536;2024-01-07T03:52:41;15.57;;;9.10;;
3815;SDS011;1923;48.154;11.536;2024-01-07T03:55:09;20.93;;;10.87;;
3815;SDS011;1923;48.154;11.536;2024-01-07T03:57:37;19.00;;;10.50;;
3815;SDS011;1923;48.154;11.536;2024-01-07T04:00:06;19.20;;;10.10;;
3815;SDS011;1923;48.154;11.536;2024-01-07T04:02:36;18.77;;;10.63;;
3815;SDS011;1923;48.154;11.536;2024-01-07T04:05:04;19.97;;;9.87;;
3815;SDS011;1923;48.154;11.536;2024-01-07T04:07:33;17.13;;;9.60;;
3815;SDS011;1923;48.154;11.536;2024-01-07T04:10:02;18.60;;;9.60;;
3815;SDS011;1923;48.154;11.536;2024-01-07T04:12:31;18.40;;;9.90;;
3815;SDS011;1923;48.154;11.536;2024-01-07T04:14:59;17.40;;;11.00;;
3815;SDS011;1923;48.154;11.536;2024-01-07T04:17:27;18.70;;;10.73;;
3815;SDS011;1923;48.154;11.536;2024-01-07T04:19:55;19.40;;;10.70;;
3815;SDS011;1923;48.154;11.536;2024-01-07T04:22:24;20.30;;;10.80;;
3815;SDS011;1923;48.154;11.536;2024-01-07T04:24:52;21.13;;;12.07;;
3815;SDS011;1923;48.154;11.536;2024-01-07T04:27:21;23.10;;;11.10;;
3815;SDS011;1923;48.154;11.536;2024-01-07T04:29:51;22.30;;;11.20;;
3815;SDS011;1923;48.154;11.536;2024-01-07T04:32:19;18.33;;;10.40;;
3815;SDS011;1923;48.154;11.536;2024-01-07T04:34:47;20.27;;;10.60;;
3815;SDS011;1923;48.154;11.536;2024-01-07T04:37:15;23.97;;;11.10;;
3815;SDS011;1923;48.154;11.536;2024-01-07T04:39:43;20.50;;;10.73;;
3815;SDS011;1923;48.154;11.536;2024-01-07T04:42:12;16.93;;;9.90;;
3815;SDS011;1923;48.154;11.536;2024-01-07T04:44:41;17.40;;;10.27;;
3815;SDS011;1923;48.154;11.536;2024-01-07T04:47:23;18.57;;;10.30;;
3815;SDS011;1923;48.154;11.536;2024-01-07T04:49:55;19.07;;;10.43;;
3815;SDS011;1923;48.154;11.536;2024-01-07T04:52:24;17.77;;;10.93;;
3815;SDS011;1923;48.154;11.536;2024-01-07T04:54:52;17.70;;;9.90;;
3815;SDS011;1923;48.154;11.536;2024-01-07T04:57:21;18.60;;;10.10;;
3815;SDS011;1923;48.154;11.536;2024-01-07T04:59:50;21.30;;;10.90;;
3815;SDS011;1923;48.154;11.536;2024-01-07T05:02:19;18.77;;;9.57;;
3815;SDS011;1923;48.154;11.536;2024-01-07T05:04:47;19.30;;;10.77;;
3815;SDS011;1923;48.154;11.536;2024-01-07T05:07:15;19.30;;;11.07;;
3815;SDS011;1923;48.154;11.536;2024-01-07T05:09:43;19.57;;;10.40;;
3815;SDS011;1923;48.154;11.536;2024-01-07T05:12:11;23.60;;;11.20;;
3815;SDS011;1923;48.154;11.536;2024-01-07T05:14:40;18.07;;;9.93;;
3815;SDS011;1923;48.154;11.536;2024-01-07T05:17:10;20.30;;;10.80;;
3815;SDS011;1923;48.154;11.536;2024-01-07T05:19:39;18.13;;;10.83;;
3815;SDS011;1923;48.154;11.536;2024-01-07T05:22:08;16.73;;;9.73;;
3815;SDS011;1923;48.154;11.536;2024-01-07T05:24:36;19.17;;;11.13;;
3815;SDS011;1923;48.154;11.536;2024-01-07T05:27:06;20.33;;;11.07;;
3815;SDS011;1923;48.154;11.536;2024-01-07T05:29:35;16.10;;;9.60;;
3815;SDS011;1923;48.154;11.536;2024-01-07T05:32:03;16.13;;;10.03;;
3815;SDS011;1923;48.154;11.536;2024-01-07T05:34:33;15.30;;;8.80;;
3815;SDS011;1923;48.154;11.536;2024-01-07T05:37:01;18.30;;;10.83;;
3815;SDS011;1923;48.154;11.536;2024-01-07T05:39:29;18.67;;;10.20;;
3815;SDS011;1923;48.154;11.536;2024-01-07T05:41:57;16.13;;;10.20;;
3815;SDS011;1923;48.154;11.536;2024-01-07T05:44:25;16.00;;;10.00;;
3815;SDS011;1923;48.154;11.536;2024-01-07T05:46:55;17.03;;;9.77;;
3815;SDS011;1923;48.154;11.536;2024-01-07T05:49:23;15.07;;;8.53;;
3815;SDS011;1923;48.154;11.536;2024-01-07T05:51:53;20.53;;;11.13;;
3815;SDS011;1923;48.154;11.536;2024-01-07T05:54:21;17.53;;;9.80;;
3815;SDS011;1923;48.154;11.536;2024-01-07T05:56:49;19.27;;;10.90;;
3815;SDS011;1923;48.154;11.536;2024-01-07T05:59:18;15.07;;;8.67;;
3815;SDS011;1923;48.154;11.536;2024-01-07T06:01:46;15.40;;;9.00;;
3815;SDS011;1923;48.154;11.536;2024-01-07T06:04:14;15.03;;;8.57;;
3815;SDS011;1923;48.154;11.536;2024-01-07T06:06:42;17.37;;;9.20;;
3815;SDS011;1923;48.154;11.536;2024-01-07T06:09:12;17.33;;;8.97;;
3815;SDS011;1923;48.154;11.536;2024-01-07T06:11:40;15.07;;;8.67;;
3815;SDS011;1923;48.154;11.536;2024-01-07T06:14:08;16.17;;;8.83;;
3815;SDS011;1923;48.154;11.536;2024-01-07T06:16:36;16.73;;;9.40;;
3815;SDS011;1923;48.154;11.536;2024-01-07T06:19:04;15.20;;;9.43;;
3815;SDS011;1923;48.154;11.536;2024-01-07T06:21:33;16.50;;;8.67;;
3815;SDS011;1923;48.154;11.536;2024-01-07T06:24:01;15.17;;;8.30;;
3815;SDS011;1923;48.154;11.536;2024-01-07T06:26:32;15.10;;;8.57;;
3815;SDS011;1923;48.154;11.536;2024-01-07T06:29:00;17.43;;;8.87;;
3815;SDS011;1923;48.154;11.536;2024-01-07T06:31:28;13.77;;;8.30;;
3815;SDS011;1923;48.154;11.536;2024-01-07T06:33:56;15.90;;;8.50;;
3815;SDS011;1923;48.154;11.536;2024-01-07T06:36:24;17.77;;;9.03;;
3815;SDS011;1923;48.154;11.536;2024-01-07T06:38:53;13.27;;;7.40;;
3815;SDS011;1923;48.154;11.536;2024-01-07T06:41:21;14.20;;;7.93;;
3815;SDS011;1923;48.154;11.536;2024-01-07T06:43:50;14.37;;;7.87;;
3815;SDS011;1923;48.154;11.536;2024-01-07T06:46:20;16.77;;;8.93;;
3815;SDS011;1923;48.154;11.536;2024-01-07T06:48:48;16.03;;;8.60;;
3815;SDS011;1923;48.154;11.536;2024-01-07T06:51:17;14.37;;;8.40;;
3815;SDS011;1923;48.154;11.536;2024-01-07T06:53:45;14.00;;;8.33;;
3815;SDS011;1923;48.154;11.536;2024-01-07T06:56:13;13.67;;;7.77;;
3815;SDS011;1923;48.154;11.536;2024-01-07T06:58:41;14.90;;;8.40;;
3815;SDS011;1923;48.154;11.536;2024-01-07T07:01:11;14.57;;;7.80;;
3815;SDS011;1923;48.154;11.536;2024-01-07T07:03:40;13.63;;;7.80;;
3815;SDS011;1923;48.154;11.536;2024-01-07T07:06:08;15.50;;;7.67;;
3815;SDS011;1923;48.154;11.536;2024-01-07T07:08:38;13.60;;;7.87;;
3815;SDS011;1923;48.154;11.536;2024-01-07T07:11:07;16.37;;;8.90;;
3815;SDS011;1923;48.154;11.536;2024-01-07T07:13:35;19.73;;;10.00;;
3815;SDS011;1923;48.154;11.536;2024-01-07T07:16:04;18.23;;;9.43;;
3815;SDS011;1923;48.154;11.536;2024-01-07T07:18:35;16.00;;;8.50;;
3815;SDS011;1923;48.154;11.536;2024-01-07T07:21:03;17.40;;;8.30;;
3815;SDS011;1923;48.154;11.536;2024-01-07T07:23:31;16.40;;;8.60;;
3815;SDS011;1923;48.154;11.536;2024-01-07T07:26:00;17.77;;;9.00;;
3815;SDS011;1923;48.154;11.536;2024-01-07T07:28:28;16.80;;;9.43;;
3815;SDS011;1923;48.154;11.536;2024-01-07T07:30:56;13.67;;;7.90;;
3815;SDS011;1923;48.154;11.536;2024-01-07T07:33:24;15.93;;;9.50;;
3815;SDS011;1923;48.154;11.536;2024-01-07T07:35:54;16.10;;;8.70;;
3815;SDS011;1923;48.154;11.536;2024-01-07T07:38:22;13.90;;;8.80;;
3815;SDS011;1923;48.154;11.536;2024-01-07T07:40:50;16.37;;;9.17;;
3815;SDS011;1923;48.154;11.536;2024-01-07T07:43:19;13.27;;;7.47;;
3815;SDS011;1923;48.154;11.536;2024-01-07T07:45:48;13.50;;;8.13;;
3815;SDS011;1923;48.154;11.536;2024-01-07T07:48:16;16.00;;;8.17;;
3815;SDS011;1923;48.154;11.536;2024-01-07T07:50:45;17.60;;;10.00;;
3815;SDS011;1923;48.154;11.536;2024-01-07T07:53:14;15.50;;;9.00;;
3815;SDS011;1923;48.154;11.536;2024-01-07T07:55:43;15.00;;;8.60;;
3815;SDS011;1923;48.154;11.536;2024-01-07T07:58:10;16.80;;;9.07;;
3815;SDS011;1923;48.154;11.536;2024-01-07T08:00:39;16.10;;;8.47;;
3815;SDS011;1923;48.154;11.536;2024-01-07T08:03:07;17.67;;;8.40;;
3815;SDS011;1923;48.154;11.536;2024-01-07T08:05:35;16.13;;;9.30;;
3815;SDS011;1923;48.154;11.536;2024-01-07T08:08:03;15.30;;;8.73;;
3815;SDS011;1923;48.154;11.536;2024-01-07T08:10:33;15.30;;;7.83;;
3815;SDS011;1923;48.154;11.536;2024-01-07T08:13:01;20.93;;;9.30;;
3815;SDS011;1923;48.154;11.536;2024-01-07T08:15:29;16.13;;;8.93;;
3815;SDS011;1923;48.154;11.536;2024-01-07T08:17:58;14.53;;;8.07;;
3815;SDS011;1923;48.154;11.536;2024-01-07T08:20:26;16.83;;;10.00;;
3815;SDS011;1923;48.154;11.536;2024-01-07T08:22:54;19.63;;;9.80;;
3815;SDS011;1923;48.154;11.536;2024-01-07T08:25:22;17.40;;;8.50;;
3815;SDS011;1923;48.154;11.536;2024-01-07T08:27:52;16.07;;;7.70;;
3815;SDS011;1923;48.154;11.536;2024-01-07T08:30:20;15.57;;;8.10;;
3815;SDS011;1923;48.154;11.536;2024-01-07T08:32:48;15.67;;;8.93;;
3815;SDS011;1923;48.154;11.536;2024-01-07T08:35:16;16.83;;;8.53;;
3815;SDS011;1923;48.154;11.536;2024-01-07T08:37:46;20.50;;;9.77;;
3815;SDS011;1923;48.154;11.536;2024-01-07T08:40:15;16.10;;;9.00;;
3815;SDS011;1923;48.154;11.536;2024-01-07T08:42:45;18.70;;;9.93;;
3815;SDS011;1923;48.154;11.536;2024-01-07T08:45:15;18.10;;;9.67;;
3815;SDS011;1923;48.154;11.536;2024-01-07T08:47:43;14.37;;;8.33;;
3815;SDS011;1923;48.154;11.536;2024-01-07T08:50:11;15.23;;;8.73;;
3815;SDS011;1923;48.154;11.536;2024-01-07T08:52:40;21.93;;;10.30;;
3815;SDS011;1923;48.154;11.536;2024-01-07T08:55:08;15.37;;;9.20;;
3815;SDS011;1923;48.154;11.536;2024-01-07T08:57:37;19.10;;;9.87;;
3815;SDS011;1923;48.154;11.536;2024-01-07T09:00:07;16.30;;;8.80;;
3815;SDS011;1923;48.154;11.536;2024-01-07T09:02:36;17.93;;;9.10;;
3815;SDS011;1923;48.154;11.536;2024-01-07T09:05:09;17.40;;;9.30;;
3815;SDS011;1923;48.154;11.536;2024-01-07T09:07:38;17.87;;;9.10;;
3815;SDS011;1923;48.154;11.536;2024-01-07T09:10:07;15.43;;;9.20;;
3815;SDS011;1923;48.154;11.536;2024-01-07T09:12:37;20.70;;;10.57;;
3815;SDS011;1923;48.154;11.536;2024-01-07T09:15:06;24.87;;;11.40;;
3815;SDS011;1923;48.154;11.536;2024-01-07T09:17:36;19.67;;;10.50;;
3815;SDS011;1923;48.154;11.536;2024-01-07T09:20:06;19.30;;;10.07;;
3815;SDS011;1923;48.154;11.536;2024-01-07T09:22:35;25.30;;;10.83;;
3815;SDS011;1923;48.154;11.536;2024-01-07T09:25:03;18.00;;;10.07;;
3815;SDS011;1923;48.154;11.536;2024-01-07T09:27:33;21.10;;;11.37;;
3815;SDS011;1923;48.154;11.536;2024-01-07T09:30:01;26.43;;;10.50;;
3815;SDS011;1923;48.154;11.536;2024-01-07T09:32:30;25.57;;;10.93;;
3815;SDS011;1923;48.154;11.536;2024-01-07T09:35:04;21.77;;;10.60;;
3815;SDS011;1923;48.154;11.536;2024-01-07T09:37:33;25.40;;;11.50;;
3815;SDS011;1923;48.154;11.536;2024-01-07T09:40:01;19.37;;;11.00;;
3815;SDS011;1923;48.154;11.536;2024-01-07T09:42:31;21.00;;;9.90;;
3815;SDS011;1923;48.154;11.536;2024-01-07T09:45:00;23.10;;;11.23;;
3815;SDS011;1923;48.154;11.536;2024-01-07T09:47:30;26.80;;;10.90;;
3815;SDS011;1923;48.154;11.536;2024-01-07T09:50:01;21.70;;;9.87;;
3815;SDS011;1923;48.154;11.536;2024-01-07T09:52:31;22.33;;;10.30;;
3815;SDS011;1923;48.154;11.536;2024-01-07T09:55:00;24.60;;;10.63;;
3815;SDS011;1923;48.154;11.536;2024-01-07T09:57:31;24.17;;;10.93;;
3815;SDS011;1923;48.154;11.536;2024-01-07T10:00:00;23.27;;;11.70;;
3815;SDS011;1923;48.154;11.536;2024-01-07T10:02:30;23.50;;;10.53;;
3815;SDS011;1923;48.154;11.536;2024-01-07T10:04:58;23.13;;;11.40;;
3815;SDS011;1923;48.154;11.536;2024-01-07T10:07:27;19.27;;;10.00;;
3815;SDS011;1923;48.154;11.536;2024-01-07T10:09:56;19.20;;;9.63;;
3815;SDS011;1923;48.154;11.536;2024-01-07T10:12:24;23.50;;;11.43;;
3815;SDS011;1923;48.154;11.536;2024-01-07T10:14:53;22.37;;;11.20;;
3815;SDS011;1923;48.154;11.536;2024-01-07T10:17:22;21.03;;;9.70;;
3815;SDS011;1923;48.154;11.536;2024-01-07T10:19:54;21.57;;;11.30;;
3815;SDS011;1923;48.154;11.536;2024-01-07T10:22:23;20.30;;;10.97;;
3815;SDS011;1923;48.154;11.536;2024-01-07T10:24:51;23.50;;;10.93;;
3815;SDS011;1923;48.154;11.536;2024-01-07T10:27:22;19.43;;;10.20;;
3815;SDS011;1923;48.154;11.536;2024-01-07T10:29:50;24.37;;;10.73;;
3815;SDS011;1923;48.154;11.536;2024-01-07T10:32:21;19.77;;;9.30;;
3815;SDS011;1923;48.154;11.536;2024-01-07T10:34:49;20.23;;;9.80;;
3815;SDS011;1923;48.154;11.536;2024-01-07T10:37:25;21.57;;;10.97;;
3815;SDS011;1923;48.154;11.536;2024-01-07T10:39:54;19.00;;;9.40;;
3815;SDS011;1923;48.154;11.536;2024-01-07T10:42:28;18.50;;;9.60;;
3815;SDS011;1923;48.154;11.536;2024-01-07T10:44:59;20.50;;;9.30;;
3815;SDS011;1923;48.154;11.536;2024-01-07T10:47:27;16.60;;;9.03;;
3815;SDS011;1923;48.154;11.536;2024-01-07T10:49:58;22.77;;;9.70;;
3815;SDS011;1923;48.154;11.536;2024-01-07T10:52:29;20.13;;;9.83;;
3815;SDS011;1923;48.154;11.536;2024-01-07T10:55:02;14.77;;;8.73;;
3815;SDS011;1923;48.154;11.536;2024-01-07T10:57:41;15.77;;;9.20;;
3815;SDS011;1923;48.154;11.536;2024-01-07T11:00:11;17.92;;;9.30;;
3815;SDS011;1923;48.154;11.536;2024-01-07T11:02:52;17.53;;;9.60;;
3815;SDS011;1923;48.154;11.536;2024-01-07T11:05:31;16.85;;;9.50;;
3815;SDS011;1923;48.154;11.536;2024-01-07T11:08:06;17.90;;;9.63;;
3815;SDS011;1923;48.154;11.536;2024-01-07T11:10:41;17.15;;;9.27;;
3815;SDS011;1923;48.154;11.536;2024-01-07T11:13:32;18.00;;;9.53;;
3815;SDS011;1923;48.154;11.536;2024-01-07T11:16:01;19.03;;;8.83;;
3815;SDS011;1923;48.154;11.536;2024-01-07T11:18:31;16.30;;;8.97;;
3815;SDS011;1923;48.154;11.536;2024-01-07T11:21:01;17.13;;;9.50;;
3815;SDS011;1923;48.154;11.536;2024-01-07T11:23:30;15.15;;;8.95;;
3815;SDS011;1923;48.154;11.536;2024-01-07T11:26:00;14.60;;;8.63;;
3815;SDS011;1923;48.154;11.536;2024-01-07T11:28:45;12.75;;;7.10;;
3815;SDS011;1923;48.154;11.536;2024-01-07T11:31:14;14.45;;;7.30;;
3815;SDS011;1923;48.154;11.536;2024-01-07T11:33:45;14.00;;;7.47;;
3815;SDS011;1923;48.154;11.536;2024-01-07T11:36:14;18.57;;;9.87;;
3815;SDS011;1923;48.154;11.536;2024-01-07T11:38:43;18.50;;;7.80;;
3815;SDS011;1923;48.154;11.536;2024-01-07T11:41:15;14.27;;;7.47;;
3815;SDS011;1923;48.154;11.536;2024-01-07T11:43:55;13.53;;;7.33;;
3815;SDS011;1923;48.154;11.536;2024-01-07T11:46:32;13.40;;;7.60;;
3815;SDS011;1923;48.154;11.536;2024-01-07T11:49:01;13.33;;;7.97;;
3815;SDS011;1923;48.154;11.536;2024-01-07T11:51:30;12.45;;;6.90;;
3815;SDS011;1923;48.154;11.536;2024-01-07T11:54:00;15.13;;;6.88;;
3815;SDS011;1923;48.154;11.536;2024-01-07T11:56:28;12.07;;;7.23;;
3815;SDS011;1923;48.154;11.536;2024-01-07T11:58:58;15.10;;;8.53;;
3815;SDS011;1923;48.154;11.536;2024-01-07T12:01:26;13.27;;;8.87;;
3815;SDS011;1923;48.154;11.536;2024-01-07T12:03:54;15.95;;;8.10;;
3815;SDS011;1923;48.154;11.536;2024-01-07T12:06:22;15.50;;;8.80;;
3815;SDS011;1923;48.154;11.536;2024-01-07T12:08:51;13.97;;;7.70;;
3815;SDS011;1923;48.154;11.536;2024-01-07T12:11:20;14.50;;;7.87;;
3815;SDS011;1923;48.154;11.536;2024-01-07T12:13:48;13.00;;;8.18;;
3815;SDS011;1923;48.154;11.536;2024-01-07T12:16:18;15.90;;;9.50;;
3815;SDS011;1923;48.154;11.536;2024-01-07T12:18:47;13.83;;;8.20;;
3815;SDS011;1923;48.154;11.536;2024-01-07T12:21:18;17.27;;;8.70;;
3815;SDS011;1923;48.154;11.536;2024-01-07T12:23:48;16.00;;;8.90;;
3815;SDS011;1923;48.154;11.536;2024-01-07T12:26:17;11.90;;;8.07;;
3815;SDS011;1923;48.154;11.536;2024-01-07T12:28:51;12.90;;;8.40;;
3815;SDS011;1923;48.154;11.536;2024-01-07T12:31:21;12.83;;;7.93;;
3815;SDS011;1923;48.154;11.536;2024-01-07T12:33:50;14.20;;;8.13;;
3815;SDS011;1923;48.154;11.536;2024-01-07T12:36:20;13.83;;;8.17;;
3815;SDS011;1923;48.154;11.536;2024-01-07T12:38:49;14.80;;;8.40;;
3815;SDS011;1923;48.154;11.536;2024-01-07T12:41:20;14.30;;;8.90;;
3815;SDS011;1923;48.154;11.536;2024-01-07T12:43:49;14.10;;;7.87;;
3815;SDS011;1923;48.154;11.536;2024-01-07T12:46:17;15.57;;;8.30;;
3815;SDS011;1923;48.154;11.536;2024-01-07T12:48:47;17.30;;;7.90;;
3815;SDS011;1923;48.154;11.536;2024-01-07T12:51:15;15.00;;;9.30;;
3815;SDS011;1923;48.154;11.536;2024-01-07T12:53:48;13.30;;;7.70;;
3815;SDS011;1923;48.154;11.536;2024-01-07T12:56:16;17.87;;;9.30;;
3815;SDS011;1923;48.154;11.536;2024-01-07T12:58:44;13.90;;;7.60;;
3815;SDS011;1923;48.154;11.536;2024-01-07T13:01:12;14.23;;;8.83;;
3815;SDS011;1923;48.154;11.536;2024-01-07T13:03:41;16.10;;;9.02;;
3815;SDS011;1923;48.154;11.536;2024-01-07T13:06:11;15.97;;;9.50;;
3815;SDS011;1923;48.154;11.536;2024-01-07T13:08:39;13.23;;;8.70;;
3815;SDS011;1923;48.154;11.536;2024-01-07T13:11:07;15.30;;;9.13;;
3815;SDS011;1923;48.154;11.536;2024-01-07T13:13:40;15.80;;;8.73;;
3815;SDS011;1923;48.154;11.536;2024-01-07T13:16:08;15.67;;;8.50;;
3815;SDS011;1923;48.154;11.536;2024-01-07T13:18:37;15.93;;;9.60;;
3815;SDS011;1923;48.154;11.536;2024-01-07T13:21:05;15.23;;;8.67;;
3815;SDS011;1923;48.154;11.536;2024-01-07T13:23:35;15.53;;;8.90;;
3815;SDS011;1923;48.154;11.536;2024-01-07T13:26:03;15.70;;;8.67;;
3815;SDS011;1923;48.154;11.536;2024-01-07T13:28:32;17.57;;;9.97;;
3815;SDS011;1923;48.154;11.536;2024-01-07T13:31:01;19.40;;;9.70;;
3815;SDS011;1923;48.154;11.536;2024-01-07T13:33:30;16.53;;;9.83;;
3815;SDS011;1923;48.154;11.536;2024-01-07T13:35:58;16.90;;;10.23;;
3815;SDS011;1923;48.154;11.536;2024-01-07T13:38:27;17.13;;;10.00;;
3815;SDS011;1923;48.154;11.536;2024-01-07T13:40:56;20.17;;;9.97;;
3815;SDS011;1923;48.154;11.536;2024-01-07T13:43:24;16.20;;;9.73;;
3815;SDS011;1923;48.154;11.536;2024-01-07T13:45:56;14.83;;;9.13;;
3815;SDS011;1923;48.154;11.536;2024-01-07T13:48:24;14.63;;;9.33;;
3815;SDS011;1923;48.154;11.536;2024-01-07T13:50:52;16.60;;;9.20;;
3815;SDS011;1923;48.154;11.536;2024-01-07T13:53:20;15.67;;;9.77;;
3815;SDS011;1923;48.154;11.536;2024-01-07T13:55:48;15.90;;;9.00;;
3815;SDS011;1923;48.154;11.536;2024-01-07T13:58:18;18.50;;;9.80;;
3815;SDS011;1923;48.154;11.536;2024-01-07T14:00:47;15.50;;;9.90;;
3815;SDS011;1923;48.154;11.536;2024-01-07T14:03:16;15.80;;;9.00;;
3815;SDS011;1923;48.154;11.536;2024-01-07T14:05:45;18.73;;;9.67;;
3815;SDS011;1923;48.154;11.536;2024-01-07T14:08:13;16.60;;;8.80;;
3815;SDS011;1923;48.154;11.536;2024-01-07T14:10:41;16.47;;;10.07;;
3815;SDS011;1923;48.154;11.536;2024-01-07T14:13:09;17.20;;;9.90;;
3815;SDS011;1923;48.154;11.536;2024-01-07T14:15:39;16.07;;;9.50;;
3815;SDS011;1923;48.154;11.536;2024-01-07T14:18:07;18.17;;;10.37;;
3815;SDS011;1923;48.154;11.536;2024-01-07T14:20:36;22.87;;;9.77;;
3815;SDS011;1923;48.154;11.536;2024-01-07T14:23:04;16.80;;;9.80;;
3815;SDS011;1923;48.154;11.536;2024-01-07T14:25:32;21.37;;;11.70;;
3815;SDS011;1923;48.154;11.536;2024-01-07T14:28:00;19.43;;;10.37;;
3815;SDS011;1923;48.154;11.536;2024-01-07T14:30:30;19.63;;;10.03;;
3815;SDS011;1923;48.154;11.536;2024-01-07T14:33:00;17.97;;;10.67;;
3815;SDS011;1923;48.154;11.536;2024-01-07T14:35:28;19.37;;;10.40;;
3815;SDS011;1923;48.154;11.536;2024-01-07T14:37:57;16.60;;;10.60;;
3815;SDS011;1923;48.154;11.536;2024-01-07T14:40:26;17.33;;;10.07;;
3815;SDS011;1923;48.154;11.536;2024-01-07T14:42:54;15.53;;;9.93;;
3815;SDS011;1923;48.154;11.536;2024-01-07T14:45:24;17.30;;;9.40;;
3815;SDS011;1923;48.154;11.536;2024-01-07T14:47:53;13.40;;;8.80;;
3815;SDS011;1923;48.154;11.536;2024-01-07T14:50:23;15.13;;;9.82;;
3815;SDS011;1923;48.154;11.536;2024-01-07T14:53:02;19.77;;;9.68;;
3815;SDS011;1923;48.154;11.536;2024-01-07T14:55:30;17.33;;;10.10;;